sensor_id;sensor_type;location;lat;lon;timestamp;pressure;altitude;pressure_sealevel;temperature;humidity
62201;BME280;48197;42.732;27.192;2023-02-20T00:01:45;99665.44;;;9.66;100.00
62201;BME280;48197;42.732;27.192;2023-02-20T00:04:12;99674.91;;;9.61;100.00
62201;BME280;48197;42.732;27.192;2023-02-20T00:06:38;99671.34;;;9.68;100.00
62201;BME280;48197;42.732;27.192;2023-02-20T00:09:05;99665.03;;;9.68;100.00
62201;BME280;48197;42.732;27.192;2023-02-20T00:11:31;99673.31;;;9.68;100.00
62201;BME280;48197;42.732;27.192;2023-02-20T00:13:58;99657.94;;;9.70;100.00
62201;BME280;48197;42.732;27.192;2023-02-20T00:16:25;99654.38;;;9.70;100.00
62201;BME280;48197;42.732;27.192;2023-02-20T00:18:51;99652.03;;;9.68;100.00
62201;BME280;48197;42.732;27.192;2023-02-20T00:21:18;99648.88;;;9.66;100.00
62201;BME280;48197;42.732;27.192;2023-02-20T00:23:44;99638.25;;;9.61;100.00
62201;BME280;48197;42.732;27.192;2023-02-20T00:26:12;99643.38;;;9.55;100.00
62201;BME280;48197;42.732;27.192;2023-02-20T00:28:39;99650.50;;;9.49;100.00
62201;BME280;48197;42.732;27.192;2023-02-20T00:31:07;99641.44;;;9.45;100.00
62201;BME280;48197;42.732;27.192;2023-02-20T00:33:37;99637.09;;;9.55;100.00
62201;BME280;48197;42.732;27.192;2023-02-20T00:36:03;99640.97;;;9.72;100.00
62201;BME280;48197;42.732;27.192;2023-02-20T00:38:30;99632.59;;;9.90;100.00
62201;BME280;48197;42.732;27.192;2023-02-20T00:40:56;99632.53;;;10.00;100.00
62201;BME280;48197;42.732;27.192;2023-02-20T00:43:22;99633.69;;;10.14;100.00
62201;BME280;48197;42.732;27.192;2023-02-20T00:45:49;99625.31;;;10.25;100.00
62201;BME280;48197;42.732;27.192;2023-02-20T00:48:17;99636.34;;;10.32;100.00
62201;BME280;48197;42.732;27.192;2023-02-20T00:50:43;99630.00;;;10.38;100.00
62201;BME280;48197;42.732;27.192;2023-02-20T00:53:09;99630.44;;;10.33;100.00
62201;BME280;48197;42.732;27.192;2023-02-20T00:55:36;99642.66;;;10.29;100.00
62201;BME280;48197;42.732;27.192;2023-02-20T00:58:02;99636.78;;;10.19;100.00
62201;BME280;48197;42.732;27.192;2023-02-20T01:00:28;99639.66;;;10.05;100.00
62201;BME280;48197;42.732;27.192;2023-02-20T01:02:55;99642.47;;;9.91;100.00
62201;BME280;48197;42.732;27.192;2023-02-20T01:05:22;99646.44;;;9.86;100.00
62201;BME280;48197;42.732;27.192;2023-02-20T01:07:49;99639.38;;;9.81;100.00
62201;BME280;48197;42.732;27.192;2023-02-20T01:10:16;99635.84;;;9.70;100.00
62201;BME280;48197;42.732;27.192;2023-02-20T01:12:42;99629.16;;;9.68;100.00
62201;BME280;48197;42.732;27.192;2023-02-20T01:15:10;99636.28;;;9.61;100.00
62201;BME280;48197;42.732;27.192;2023-02-20T01:17:36;99635.53;;;9.50;100.00
62201;BME280;48197;42.732;27.192;2023-02-20T01:20:02;99632.81;;;9.43;100.00
62201;BME280;48197;42.732;27.192;2023-02-20T01:22:29;99634.38;;;9.44;100.00
62201;BME280;48197;42.732;27.192;2023-02-20T01:24:55;99638.31;;;9.47;100.00
62201;BME280;48197;42.732;27.192;2023-02-20T01:27:22;99623.38;;;9.33;100.00
62201;BME280;48197;42.732;27.192;2023-02-20T01:29:49;99619.84;;;9.18;100.00
62201;BME280;48197;42.732;27.192;2023-02-20T01:32:15;99620.66;;;9.08;100.00
62201;BME280;48197;42.732;27.192;2023-02-20T01:34:42;99642.69;;;9.19;100.00
62201;BME280;48197;42.732;27.192;2023-02-20T01:37:10;99644.63;;;9.40;100.00
62201;BME280;48197;42.732;27.192;2023-02-20T01:39:39;99650.75;;;9.87;100.00
62201;BME280;48197;42.732;27.192;2023-02-20T01:42:06;99649.22;;;9.79;100.00
62201;BME280;48197;42.732;27.192;2023-02-20T01:44:35;99659.16;;;9.58;100.00
62201;BME280;48197;42.732;27.192;2023-02-20T01:47:05;99650.56;;;9.31;100.00
62201;BME280;48197;42.732;27.192;2023-02-20T01:49:33;99652.94;;;9.22;100.00
62201;BME280;48197;42.732;27.192;2023-02-20T01:52:23;99661.19;;;9.26;100.00
62201;BME280;48197;42.732;27.192;2023-02-20T01:55:08;99664.00;;;9.11;100.00
62201;BME280;48197;42.732;27.192;2023-02-20T01:57:37;99640.53;;;9.84;100.00
62201;BME280;48197;42.732;27.192;2023-02-20T02:00:11;99648.94;;;10.40;100.00
62201;BME280;48197;42.732;27.192;2023-02-20T02:02:39;99639.94;;;10.77;100.00
62201;BME280;48197;42.732;27.192;2023-02-20T02:05:08;99631.44;;;11.44;95.28
62201;BME280;48197;42.732;27.192;2023-02-20T02:07:35;99631.44;;;11.75;92.78
62201;BME280;48197;42.732;27.192;2023-02-20T02:10:03;99634.47;;;11.84;87.03
62201;BME280;48197;42.732;27.192;2023-02-20T02:12:32;99636.38;;;11.94;85.74
62201;BME280;48197;42.732;27.192;2023-02-20T02:14:58;99632.31;;;12.02;85.09
62201;BME280;48197;42.732;27.192;2023-02-20T02:18:26;99620.09;;;12.00;83.18
62201;BME280;48197;42.732;27.192;2023-02-20T02:25:54;99623.75;;;12.20;81.84
62201;BME280;48197;42.732;27.192;2023-02-20T02:28:31;99640.72;;;12.22;83.43
62201;BME280;48197;42.732;27.192;2023-02-20T02:39:00;99677.44;;;12.30;81.52
62201;BME280;48197;42.732;27.192;2023-02-20T02:46:53;99678.47;;;12.13;82.71
62201;BME280;48197;42.732;27.192;2023-02-20T02:51:58;99682.19;;;11.99;83.33
62201;BME280;48197;42.732;27.192;2023-02-20T02:54:26;99680.69;;;11.94;83.94
62201;BME280;48197;42.732;27.192;2023-02-20T02:59:37;99682.78;;;11.83;84.00
62201;BME280;48197;42.732;27.192;2023-02-20T03:02:04;99668.09;;;11.86;83.92
62201;BME280;48197;42.732;27.192;2023-02-20T03:04:35;99673.13;;;11.98;82.49
62201;BME280;48197;42.732;27.192;2023-02-20T03:07:05;99692.19;;;11.93;82.59
62201;BME280;48197;42.732;27.192;2023-02-20T03:09:34;99696.22;;;11.84;83.74
62201;BME280;48197;42.732;27.192;2023-02-20T03:12:03;99701.56;;;11.64;85.20
62201;BME280;48197;42.732;27.192;2023-02-20T03:14:40;99697.84;;;11.44;85.99
62201;BME280;48197;42.732;27.192;2023-02-20T03:17:31;99706.84;;;11.52;85.68
62201;BME280;48197;42.732;27.192;2023-02-20T03:19:59;99711.59;;;11.51;86.16
62201;BME280;48197;42.732;27.192;2023-02-20T03:22:58;99718.84;;;11.38;86.46
62201;BME280;48197;42.732;27.192;2023-02-20T03:25:24;99722.94;;;11.22;87.25
62201;BME280;48197;42.732;27.192;2023-02-20T03:28:01;99728.09;;;11.20;88.68
62201;BME280;48197;42.732;27.192;2023-02-20T03:30:35;99747.75;;;11.33;87.93
62201;BME280;48197;42.732;27.192;2023-02-20T03:33:07;99743.13;;;11.19;89.39
62201;BME280;48197;42.732;27.192;2023-02-20T03:35:54;99753.75;;;11.24;88.83
62201;BME280;48197;42.732;27.192;2023-02-20T03:38:40;99763.25;;;11.23;88.81
62201;BME280;48197;42.732;27.192;2023-02-20T03:41:27;99762.09;;;11.17;88.94
62201;BME280;48197;42.732;27.192;2023-02-20T03:44:13;99772.03;;;11.11;89.30
62201;BME280;48197;42.732;27.192;2023-02-20T03:46:40;99770.09;;;11.08;88.99
62201;BME280;48197;42.732;27.192;2023-02-20T03:49:10;99767.63;;;11.21;87.99
62201;BME280;48197;42.732;27.192;2023-02-20T03:51:38;99777.84;;;11.28;87.87
62201;BME280;48197;42.732;27.192;2023-02-20T03:54:05;99776.69;;;11.21;88.32
62201;BME280;48197;42.732;27.192;2023-02-20T03:56:41;99784.69;;;11.12;88.93
62201;BME280;48197;42.732;27.192;2023-02-20T03:59:22;99779.94;;;11.09;88.87
62201;BME280;48197;42.732;27.192;2023-02-20T04:01:53;99773.25;;;11.03;89.34
62201;BME280;48197;42.732;27.192;2023-02-20T04:04:25;99776.78;;;11.11;88.54
62201;BME280;48197;42.732;27.192;2023-02-20T04:06:54;99787.09;;;11.07;89.12
62201;BME280;48197;42.732;27.192;2023-02-20T04:09:25;99800.56;;;11.01;89.23
62201;BME280;48197;42.732;27.192;2023-02-20T04:11:57;99794.28;;;10.93;89.18
62201;BME280;48197;42.732;27.192;2023-02-20T04:14:25;99793.84;;;10.98;87.66
62201;BME280;48197;42.732;27.192;2023-02-20T04:16:55;99797.38;;;11.06;87.02
62201;BME280;48197;42.732;27.192;2023-02-20T04:19:23;99792.31;;;10.94;88.12
62201;BME280;48197;42.732;27.192;2023-02-20T04:21:53;99794.41;;;10.72;88.83
62201;BME280;48197;42.732;27.192;2023-02-20T04:24:25;99813.00;;;10.71;88.93
62201;BME280;48197;42.732;27.192;2023-02-20T04:26:54;99815.66;;;10.86;87.80
62201;BME280;48197;42.732;27.192;2023-02-20T04:29:21;99818.03;;;10.83;87.74
62201;BME280;48197;42.732;27.192;2023-02-20T04:31:48;99829.97;;;10.73;87.77
62201;BME280;48197;42.732;27.192;2023-02-20T04:34:14;99831.13;;;10.72;88.84
62201;BME280;48197;42.732;27.192;2023-02-20T04:36:41;99818.16;;;10.62;89.16
62201;BME280;48197;42.732;27.192;2023-02-20T04:39:07;99822.50;;;10.63;88.86
62201;BME280;48197;42.732;27.192;2023-02-20T04:41:34;99836.72;;;10.61;88.79
62201;BME280;48197;42.732;27.192;2023-02-20T04:44:01;99830.84;;;10.49;89.83
62201;BME280;48197;42.732;27.192;2023-02-20T04:46:46;99833.66;;;10.34;90.80
62201;BME280;48197;42.732;27.192;2023-02-20T04:49:12;99832.50;;;10.32;91.07
62201;BME280;48197;42.732;27.192;2023-02-20T04:51:38;99837.19;;;10.38;90.37
62201;BME280;48197;42.732;27.192;2023-02-20T04:54:06;99835.22;;;10.28;91.05
62201;BME280;48197;42.732;27.192;2023-02-20T04:56:32;99838.84;;;10.18;92.04
62201;BME280;48197;42.732;27.192;2023-02-20T04:58:59;99849.88;;;10.18;91.78
62201;BME280;48197;42.732;27.192;2023-02-20T05:01:25;99846.34;;;10.10;92.15
62201;BME280;48197;42.732;27.192;2023-02-20T05:03:51;99852.25;;;10.16;92.20
62201;BME280;48197;42.732;27.192;2023-02-20T05:06:18;99860.91;;;10.25;90.77
62201;BME280;48197;42.732;27.192;2023-02-20T05:08:45;99862.50;;;10.30;91.08
62201;BME280;48197;42.732;27.192;2023-02-20T05:11:11;99864.84;;;10.24;91.27
62201;BME280;48197;42.732;27.192;2023-02-20T05:13:38;99874.34;;;10.12;92.19
62201;BME280;48197;42.732;27.192;2023-02-20T05:16:05;99888.53;;;10.11;92.24
62201;BME280;48197;42.732;27.192;2023-02-20T05:18:32;99894.88;;;10.08;92.83
62201;BME280;48197;42.732;27.192;2023-02-20T05:20:58;99905.13;;;10.04;92.77
62201;BME280;48197;42.732;27.192;2023-02-20T05:23:45;99920.91;;;10.10;92.91
62201;BME280;48197;42.732;27.192;2023-02-20T05:26:16;99909.84;;;10.17;91.83
62201;BME280;48197;42.732;27.192;2023-02-20T05:28:43;99916.13;;;10.47;88.91
62201;BME280;48197;42.732;27.192;2023-02-20T05:31:09;99920.41;;;10.62;88.83
62201;BME280;48197;42.732;27.192;2023-02-20T05:33:36;99931.09;;;10.60;88.62
62201;BME280;48197;42.732;27.192;2023-02-20T05:36:03;99949.63;;;10.67;89.09
62201;BME280;48197;42.732;27.192;2023-02-20T05:38:30;99943.28;;;10.77;86.93
62201;BME280;48197;42.732;27.192;2023-02-20T05:40:56;99944.44;;;10.87;86.98
62201;BME280;48197;42.732;27.192;2023-02-20T05:46:25;99946.34;;;11.00;86.63
62201;BME280;48197;42.732;27.192;2023-02-20T05:48:53;99947.94;;;10.94;87.35
62201;BME280;48197;42.732;27.192;2023-02-20T05:51:26;99949.16;;;10.97;86.78
62201;BME280;48197;42.732;27.192;2023-02-20T05:53:53;99955.41;;;11.08;86.71
62201;BME280;48197;42.732;27.192;2023-02-20T05:56:20;99959.28;;;11.25;85.98
62201;BME280;48197;42.732;27.192;2023-02-20T05:58:47;99952.09;;;11.35;86.57
62201;BME280;48197;42.732;27.192;2023-02-20T06:01:21;99966.38;;;11.30;86.48
62201;BME280;48197;42.732;27.192;2023-02-20T06:03:47;99963.22;;;11.24;87.46
62201;BME280;48197;42.732;27.192;2023-02-20T06:06:14;99962.03;;;11.25;87.03
62201;BME280;48197;42.732;27.192;2023-02-20T06:08:40;99958.88;;;11.27;86.95
62201;BME280;48197;42.732;27.192;2023-02-20T06:11:08;99965.22;;;11.23;86.68
62201;BME280;48197;42.732;27.192;2023-02-20T06:13:35;99954.56;;;11.18;87.25
62201;BME280;48197;42.732;27.192;2023-02-20T06:16:01;99951.03;;;11.11;87.16
62201;BME280;48197;42.732;27.192;2023-02-20T06:18:28;99959.78;;;10.98;87.27
62201;BME280;48197;42.732;27.192;2023-02-20T06:20:54;99966.13;;;10.92;87.53
62201;BME280;48197;42.732;27.192;2023-02-20T06:23:21;99978.78;;;10.86;87.93
62201;BME280;48197;42.732;27.192;2023-02-20T06:25:48;99965.34;;;10.91;87.98
62201;BME280;48197;42.732;27.192;2023-02-20T06:28:15;99977.91;;;11.10;87.34
62201;BME280;48197;42.732;27.192;2023-02-20T06:30:41;99977.31;;;11.51;85.46
62201;BME280;48197;42.732;27.192;2023-02-20T06:33:08;99972.78;;;12.31;82.83
62201;BME280;48197;42.732;27.192;2023-02-20T06:35:34;99983.53;;;12.25;81.83
62201;BME280;48197;42.732;27.192;2023-02-20T06:38:01;99997.19;;;11.98;83.30
62201;BME280;48197;42.732;27.192;2023-02-20T06:40:27;99994.72;;;12.15;81.00
62201;BME280;48197;42.732;27.192;2023-02-20T06:42:54;99998.19;;;12.22;80.97
62201;BME280;48197;42.732;27.192;2023-02-20T06:45:20;99977.06;;;12.39;81.12
62201;BME280;48197;42.732;27.192;2023-02-20T06:47:47;99981.41;;;12.40;79.86
62201;BME280;48197;42.732;27.192;2023-02-20T06:50:13;99996.47;;;12.39;79.05
62201;BME280;48197;42.732;27.192;2023-02-20T06:52:40;100003.75;;;12.64;78.27
62201;BME280;48197;42.732;27.192;2023-02-20T06:55:07;100015.97;;;12.70;78.00
62201;BME280;48197;42.732;27.192;2023-02-20T06:57:33;100017.97;;;12.70;78.63
62201;BME280;48197;42.732;27.192;2023-02-20T07:00:00;100023.41;;;12.80;71.97
62201;BME280;48197;42.732;27.192;2023-02-20T07:02:26;100051.34;;;12.97;71.98
62201;BME280;48197;42.732;27.192;2023-02-20T07:04:53;100033.16;;;13.61;69.38
62201;BME280;48197;42.732;27.192;2023-02-20T07:07:20;100052.13;;;13.35;69.78
62201;BME280;48197;42.732;27.192;2023-02-20T07:09:46;100040.72;;;12.92;68.98
62201;BME280;48197;42.732;27.192;2023-02-20T07:12:13;100059.41;;;11.79;73.92
62201;BME280;48197;42.732;27.192;2023-02-20T07:14:39;100063.59;;;11.32;76.29
62201;BME280;48197;42.732;27.192;2023-02-20T07:17:06;100062.09;;;11.09;77.87
62201;BME280;48197;42.732;27.192;2023-02-20T07:19:32;100083.47;;;10.91;78.95
62201;BME280;48197;42.732;27.192;2023-02-20T07:21:59;100083.09;;;10.78;79.82
62201;BME280;48197;42.732;27.192;2023-02-20T07:24:26;100060.59;;;10.61;80.85
62201;BME280;48197;42.732;27.192;2023-02-20T07:26:53;100066.53;;;10.46;82.16
62201;BME280;48197;42.732;27.192;2023-02-20T07:29:20;100069.69;;;10.33;82.48
62201;BME280;48197;42.732;27.192;2023-02-20T07:31:47;100083.47;;;10.26;83.18
62201;BME280;48197;42.732;27.192;2023-02-20T07:34:14;100087.03;;;10.23;83.08
62201;BME280;48197;42.732;27.192;2023-02-20T07:36:40;100081.09;;;10.14;84.29
62201;BME280;48197;42.732;27.192;2023-02-20T07:39:07;100098.81;;;10.02;85.60
62201;BME280;48197;42.732;27.192;2023-02-20T07:41:33;100104.72;;;9.93;86.20
62201;BME280;48197;42.732;27.192;2023-02-20T07:44:01;100114.56;;;9.84;87.38
62201;BME280;48197;42.732;27.192;2023-02-20T07:46:27;100114.16;;;9.78;88.15
62201;BME280;48197;42.732;27.192;2023-02-20T07:49:02;100123.97;;;9.72;88.22
62201;BME280;48197;42.732;27.192;2023-02-20T07:51:29;100133.06;;;9.69;88.10
62201;BME280;48197;42.732;27.192;2023-02-20T07:53:56;100127.88;;;9.60;88.10
62201;BME280;48197;42.732;27.192;2023-02-20T07:56:23;100139.28;;;9.55;88.43
62201;BME280;48197;42.732;27.192;2023-02-20T07:58:50;100149.56;;;9.61;88.46
62201;BME280;48197;42.732;27.192;2023-02-20T08:01:16;100149.56;;;9.61;87.66
62201;BME280;48197;42.732;27.192;2023-02-20T08:03:42;100162.19;;;9.63;88.80
62201;BME280;48197;42.732;27.192;2023-02-20T08:06:08;100167.34;;;9.68;89.05
62201;BME280;48197;42.732;27.192;2023-02-20T08:08:35;100173.13;;;9.45;90.66
62201;BME280;48197;42.732;27.192;2023-02-20T08:14:22;100181.25;;;9.19;91.68
62201;BME280;48197;42.732;27.192;2023-02-20T08:16:48;100185.19;;;9.18;93.21
62201;BME280;48197;42.732;27.192;2023-02-20T08:19:15;100182.34;;;9.08;93.77
62201;BME280;48197;42.732;27.192;2023-02-20T08:21:41;100188.44;;;8.79;94.38
62201;BME280;48197;42.732;27.192;2023-02-20T08:24:07;100186.38;;;8.69;95.37
62201;BME280;48197;42.732;27.192;2023-02-20T08:26:34;100195.28;;;8.55;96.44
62201;BME280;48197;42.732;27.192;2023-02-20T08:29:01;100202.31;;;8.46;97.29
62201;BME280;48197;42.732;27.192;2023-02-20T08:31:27;100196.75;;;8.42;97.37
62201;BME280;48197;42.732;27.192;2023-02-20T08:33:53;100201.53;;;8.45;96.91
62201;BME280;48197;42.732;27.192;2023-02-20T08:36:19;100210.25;;;8.54;96.13
62201;BME280;48197;42.732;27.192;2023-02-20T08:38:46;100202.41;;;9.01;94.24
62201;BME280;48197;42.732;27.192;2023-02-20T08:41:13;100188.06;;;9.36;90.39
62201;BME280;48197;42.732;27.192;2023-02-20T08:43:39;100187.38;;;9.54;89.11
62201;BME280;48197;42.732;27.192;2023-02-20T08:46:06;100184.25;;;9.59;88.15
62201;BME280;48197;42.732;27.192;2023-02-20T08:48:33;100173.09;;;9.37;87.61
62201;BME280;48197;42.732;27.192;2023-02-20T08:50:59;100178.47;;;9.16;90.01
62201;BME280;48197;42.732;27.192;2023-02-20T08:53:26;100170.59;;;9.91;86.09
62201;BME280;48197;42.732;27.192;2023-02-20T08:55:52;100185.19;;;9.92;83.75
62201;BME280;48197;42.732;27.192;2023-02-20T08:58:23;100205.94;;;9.64;86.13
62201;BME280;48197;42.732;27.192;2023-02-20T09:00:50;100230.94;;;9.93;85.60
62201;BME280;48197;42.732;27.192;2023-02-20T09:03:17;100242.59;;;10.41;81.59
62201;BME280;48197;42.732;27.192;2023-02-20T09:05:44;100248.16;;;10.52;80.37
62201;BME280;48197;42.732;27.192;2023-02-20T09:08:11;100258.75;;;10.32;79.60
62201;BME280;48197;42.732;27.192;2023-02-20T09:10:37;100276.44;;;10.20;80.98
62201;BME280;48197;42.732;27.192;2023-02-20T09:13:04;100284.63;;;10.02;81.59
62201;BME280;48197;42.732;27.192;2023-02-20T09:15:31;100277.06;;;9.89;81.86
62201;BME280;48197;42.732;27.192;2023-02-20T09:18:07;100281.41;;;9.86;81.56
62201;BME280;48197;42.732;27.192;2023-02-20T09:20:35;100289.22;;;9.73;80.65
62201;BME280;48197;42.732;27.192;2023-02-20T09:23:03;100274.00;;;10.05;81.63
62201;BME280;48197;42.732;27.192;2023-02-20T09:25:29;100267.91;;;10.54;78.73
62201;BME280;48197;42.732;27.192;2023-02-20T09:27:56;100266.00;;;11.01;77.47
62201;BME280;48197;42.732;27.192;2023-02-20T09:30:22;100258.09;;;11.14;75.06
62201;BME280;48197;42.732;27.192;2023-02-20T09:32:49;100256.91;;;11.15;74.09
62201;BME280;48197;42.732;27.192;2023-02-20T09:35:20;100249.03;;;11.24;75.41
62201;BME280;48197;42.732;27.192;2023-02-20T09:37:47;100256.50;;;11.45;73.16
62201;BME280;48197;42.732;27.192;2023-02-20T10:08:42;100288.44;;;9.21;80.49
62201;BME280;48197;42.732;27.192;2023-02-20T10:11:09;100291.88;;;9.11;81.34
62201;BME280;48197;42.732;27.192;2023-02-20T10:13:47;100292.28;;;9.09;81.70
62201;BME280;48197;42.732;27.192;2023-02-20T10:18:56;100286.53;;;9.29;80.95
62201;BME280;48197;42.732;27.192;2023-02-20T10:21:35;100288.47;;;9.25;81.47
62201;BME280;48197;42.732;27.192;2023-02-20T10:26:36;100281.47;;;9.38;81.23
62201;BME280;48197;42.732;27.192;2023-02-20T10:29:18;100279.00;;;9.26;80.86
62201;BME280;48197;42.732;27.192;2023-02-20T10:31:48;100282.13;;;9.20;81.75
62201;BME280;48197;42.732;27.192;2023-02-20T10:34:18;100280.91;;;9.14;80.90
62201;BME280;48197;42.732;27.192;2023-02-20T10:36:49;100283.81;;;8.88;81.57
62201;BME280;48197;42.732;27.192;2023-02-20T10:39:19;100285.84;;;8.57;83.18
62201;BME280;48197;42.732;27.192;2023-02-20T10:45:29;100302.91;;;8.70;84.82
62201;BME280;48197;42.732;27.192;2023-02-20T10:50:08;100311.59;;;8.72;83.53
62201;BME280;48197;42.732;27.192;2023-02-20T10:52:44;100304.31;;;8.94;82.16
62201;BME280;48197;42.732;27.192;2023-02-20T10:55:26;100306.00;;;9.02;82.73
62201;BME280;48197;42.732;27.192;2023-02-20T10:57:57;100301.88;;;8.82;81.48
62201;BME280;48197;42.732;27.192;2023-02-20T11:00:50;100303.88;;;8.51;83.84
62201;BME280;48197;42.732;27.192;2023-02-20T11:03:19;100300.47;;;8.61;84.09
62201;BME280;48197;42.732;27.192;2023-02-20T11:05:50;100298.16;;;8.67;83.82
62201;BME280;48197;42.732;27.192;2023-02-20T11:08:18;100283.09;;;8.94;84.34
62201;BME280;48197;42.732;27.192;2023-02-20T11:10:47;100277.81;;;9.23;81.72
62201;BME280;48197;42.732;27.192;2023-02-20T11:13:17;100280.97;;;9.25;80.42
62201;BME280;48197;42.732;27.192;2023-02-20T11:15:45;100267.09;;;9.14;81.63
62201;BME280;48197;42.732;27.192;2023-02-20T11:21:59;100274.72;;;9.28;80.99
62201;BME280;48197;42.732;27.192;2023-02-20T11:24:15;100290.41;;;9.20;80.90
62201;BME280;48197;42.732;27.192;2023-02-20T11:26:44;100283.09;;;8.98;81.72
62201;BME280;48197;42.732;27.192;2023-02-20T11:29:15;100282.69;;;8.92;81.98
62201;BME280;48197;42.732;27.192;2023-02-20T11:31:42;100298.94;;;8.67;81.62
62201;BME280;48197;42.732;27.192;2023-02-20T11:34:16;100300.91;;;8.33;84.29
62201;BME280;48197;42.732;27.192;2023-02-20T11:36:50;100288.72;;;8.04;86.74
62201;BME280;48197;42.732;27.192;2023-02-20T11:41:43;100275.09;;;8.14;86.52
62201;BME280;48197;42.732;27.192;2023-02-20T11:46:40;100256.19;;;8.43;85.23
62201;BME280;48197;42.732;27.192;2023-02-20T11:49:07;100270.03;;;8.50;84.32
62201;BME280;48197;42.732;27.192;2023-02-20T11:56:33;100267.78;;;8.26;84.55
62201;BME280;48197;42.732;27.192;2023-02-20T12:01:44;100281.22;;;8.01;86.39
62201;BME280;48197;42.732;27.192;2023-02-20T12:04:21;100272.84;;;7.93;86.65
62201;BME280;48197;42.732;27.192;2023-02-20T12:06:49;100266.06;;;7.84;86.90
62201;BME280;48197;42.732;27.192;2023-02-20T12:09:17;100271.63;;;7.87;87.44
62201;BME280;48197;42.732;27.192;2023-02-20T12:11:45;100267.34;;;7.93;86.76
62201;BME280;48197;42.732;27.192;2023-02-20T12:14:13;100263.88;;;7.96;87.09
62201;BME280;48197;42.732;27.192;2023-02-20T12:16:53;100275.53;;;7.86;86.57
62201;BME280;48197;42.732;27.192;2023-02-20T12:19:32;100274.75;;;7.89;86.85
62201;BME280;48197;42.732;27.192;2023-02-20T12:22:10;100282.34;;;7.96;86.95
62201;BME280;48197;42.732;27.192;2023-02-20T12:27:29;100301.66;;;8.00;86.72
62201;BME280;48197;42.732;27.192;2023-02-20T12:37:55;100294.47;;;8.22;84.42
62201;BME280;48197;42.732;27.192;2023-02-20T12:40:36;100293.06;;;8.35;84.59
62201;BME280;48197;42.732;27.192;2023-02-20T12:48:31;100294.66;;;8.70;82.86
62201;BME280;48197;42.732;27.192;2023-02-20T12:56:02;100320.19;;;9.04;80.61
62201;BME280;48197;42.732;27.192;2023-02-20T13:01:10;100320.66;;;9.61;78.45
62201;BME280;48197;42.732;27.192;2023-02-20T13:06:07;100323.94;;;9.78;77.40
62201;BME280;48197;42.732;27.192;2023-02-20T13:11:18;100308.25;;;9.93;76.26
62201;BME280;48197;42.732;27.192;2023-02-20T13:13:52;100304.03;;;10.10;76.04
62201;BME280;48197;42.732;27.192;2023-02-20T13:18:58;100290.16;;;10.02;74.48
62201;BME280;48197;42.732;27.192;2023-02-20T13:21:28;100295.19;;;9.82;75.67
62201;BME280;48197;42.732;27.192;2023-02-20T13:24:40;100282.88;;;9.73;76.94
62201;BME280;48197;42.732;27.192;2023-02-20T13:26:52;100288.25;;;9.48;76.76
62201;BME280;48197;42.732;27.192;2023-02-20T13:29:22;100290.81;;;9.78;77.10
62201;BME280;48197;42.732;27.192;2023-02-20T13:31:56;100275.72;;;10.31;74.91
62201;BME280;48197;42.732;27.192;2023-02-20T13:34:26;100281.91;;;10.10;74.50
62201;BME280;48197;42.732;27.192;2023-02-20T13:36:54;100272.63;;;9.70;75.23
62201;BME280;48197;42.732;27.192;2023-02-20T13:45:02;100276.56;;;9.17;78.58
62201;BME280;48197;42.732;27.192;2023-02-20T13:57:30;100276.19;;;8.40;82.27
62201;BME280;48197;42.732;27.192;2023-02-20T13:59:59;100279.44;;;8.46;81.96
62201;BME280;48197;42.732;27.192;2023-02-20T14:02:26;100278.66;;;8.49;81.96
62201;BME280;48197;42.732;27.192;2023-02-20T14:05:00;100275.91;;;8.49;82.10
62201;BME280;48197;42.732;27.192;2023-02-20T14:07:36;100267.88;;;9.11;80.90
62201;BME280;48197;42.732;27.192;2023-02-20T14:10:04;100280.03;;;9.55;77.70
62201;BME280;48197;42.732;27.192;2023-02-20T14:12:32;100274.31;;;9.89;76.63
62201;BME280;48197;42.732;27.192;2023-02-20T14:15:01;100269.53;;;9.78;75.83
62201;BME280;48197;42.732;27.192;2023-02-20T14:17:29;100279.09;;;9.33;77.83
62201;BME280;48197;42.732;27.192;2023-02-20T14:19:58;100283.00;;;9.28;77.73
62201;BME280;48197;42.732;27.192;2023-02-20T14:22:30;100282.09;;;9.17;78.04
62201;BME280;48197;42.732;27.192;2023-02-20T14:25:29;100286.03;;;9.19;79.36
62201;BME280;48197;42.732;27.192;2023-02-20T14:27:50;100277.59;;;9.46;78.08
62201;BME280;48197;42.732;27.192;2023-02-20T14:30:18;100282.88;;;9.73;77.99
62201;BME280;48197;42.732;27.192;2023-02-20T14:32:46;100276.91;;;10.33;77.23
62201;BME280;48197;42.732;27.192;2023-02-20T14:40:26;100292.47;;;10.85;75.70
62201;BME280;48197;42.732;27.192;2023-02-20T14:42:59;100297.22;;;10.95;73.88
62201;BME280;48197;42.732;27.192;2023-02-20T14:45:27;100301.09;;;10.69;74.89
62201;BME280;48197;42.732;27.192;2023-02-20T14:50:42;100306.13;;;10.31;79.54
62201;BME280;48197;42.732;27.192;2023-02-20T14:53:15;100319.81;;;10.09;79.87
62201;BME280;48197;42.732;27.192;2023-02-20T14:55:42;100311.38;;;9.84;81.10
62201;BME280;48197;42.732;27.192;2023-02-20T14:58:18;100312.75;;;9.56;81.64
62201;BME280;48197;42.732;27.192;2023-02-20T15:00:46;100308.56;;;9.25;83.24
62201;BME280;48197;42.732;27.192;2023-02-20T15:05:47;100302.47;;;8.64;85.44
62201;BME280;48197;42.732;27.192;2023-02-20T15:08:19;100299.56;;;8.50;88.32
62201;BME280;48197;42.732;27.192;2023-02-20T15:10:47;100291.59;;;8.45;90.67
62201;BME280;48197;42.732;27.192;2023-02-20T15:13:14;100298.56;;;8.35;90.92
62201;BME280;48197;42.732;27.192;2023-02-20T15:15:46;100293.34;;;8.26;92.30
62201;BME280;48197;42.732;27.192;2023-02-20T15:18:16;100302.63;;;8.14;91.97
62201;BME280;48197;42.732;27.192;2023-02-20T15:20:55;100304.09;;;8.05;92.92
62201;BME280;48197;42.732;27.192;2023-02-20T15:25:47;100306.97;;;7.85;93.42